Langruth, Canada
Current Conditions -  °F | °C
As of 3:00 PM on Thursday 27 Nov 2014 (Local Time) from CYBR Reporting Station
Overcast Overcast  
Wind Chill: -20°   Ceiling: 11000
Heat Index: -14°   Visibility: 15mi
Dew Point: -17°   Wind: 6mph
Humidity: 79%   Direction: 90°E
Pressure: 30.15"   Gusts: NA
Location:  50.38°N, 98.67°W
Report Text: CYBR 272100Z 09005KT 15SM BKN110 OVC220 M14/M17 A3015 RMK AC5CI3 SLP258
Loading
Personal Weather Stations






























Interactive Weather Map New forecast layout! Learn more

10-Day Weather Forecast

Advertisements
Track Severe Weather on mobile